Spirit of New Zealand — ZMSV — position and weather

sailwx.info

Track history (hours):
 
Tides and Currents Weather Stations Pressure Air Temp Water Temp Dewpoint Dewpoint Depression Visibility Wind Speed Wind Dir Waves Ship Positions

Spirit of New Zealand

Last reported at 2018-Dec-18 08:58 UTC. Time now 2018-Dec-18 11:30 UTC.
Position S 40°53' E 173°03'.

Length 37 m; draft 4.1 m.

Type: Passenger vessel. MMSI: 512201000.

Date/timePositionNaut miles runAvg speedWind from/ knotsBaromVisibWave heightAir tempDewpointWater temp
2018-Dec-18 08:58S 40°53' E 173°03'3 4.7
2018-Dec-18 08:24S 40°56' E 173°05'7 1.0
2018-Dec-18 01:18S 40°52' E 173°13'2 7.8
2018-Dec-18 01:00S 40°53' E 173°10'4 7.2
2018-Dec-18 00:30S 40°54' E 173°06'8 0.4
2018-Dec-17 05:19S 40°54' E 173°17'5 8.0
2018-Dec-17 04:42S 40°51' E 173°22'2 7.8
2018-Dec-17 04:29S 40°51' E 173°24'4 7.6
2018-Dec-17 03:59S 40°49' E 173°29'3 7.1
2018-Dec-17 03:30S 40°47' E 173°33'4 7.8
2018-Dec-17 03:00S 40°46' E 173°38'12 7.8
2018-Dec-17 01:32S 40°43' E 173°52'1 7.5
2018-Dec-17 01:24S 40°42' E 173°53'2 4.3
2018-Dec-17 00:58S 40°44' E 173°54'2 4.3
2018-Dec-17 00:28S 40°46' E 173°52'0 0.0
2018-Dec-16 20:06S 40°46' E 173°53'0 0.6
2018-Dec-16 20:00S 40°46' E 173°52'1 2.4
2018-Dec-16 19:30S 40°47' E 173°53'0 0.0
2018-Dec-16 15:08S 40°47' E 173°53'0 0.0
2018-Dec-16 14:05S 40°47' E 173°53'0 0.0
2018-Dec-16 11:14S 40°47' E 173°53'0 0.0
2018-Dec-16 10:08S 40°47' E 173°53'0 0.0
2018-Dec-16 09:47S 40°47' E 173°53'0 0.0
2018-Dec-16 08:59S 40°47' E 173°53'0 0.0
2018-Dec-16 07:14S 40°47' E 173°53'0 0.0
2018-Dec-16 06:38S 40°47' E 173°53'0 0.0
2018-Dec-16 05:29S 40°47' E 173°53'1 1.0
2018-Dec-16 04:58S 40°47' E 173°53'4 8.2
2018-Dec-16 04:27S 40°43' E 173°55'4 8.5
2018-Dec-16 04:01S 40°40' E 173°58'4 7.5
2018-Dec-16 03:30S 40°41' E 174°03'4 8.8
2018-Dec-16 03:01S 40°46' E 174°01'5 9.5
2018-Dec-16 02:30S 40°50' E 173°58'5 9.3
2018-Dec-16 02:01S 40°54' E 173°54'5 7.8
2018-Dec-16 01:26S 40°56' E 173°49'3 5.2
2018-Dec-16 00:49S 40°58' E 173°46'3 8.0
2018-Dec-16 00:27S 40°59' E 173°42'3 3.7
2018-Dec-15 23:46S 40°60' E 173°39'1 2.0
2018-Dec-15 23:31S 40°60' E 173°38'1 2.7
2018-Dec-15 23:00S 41°01' E 173°37'2 4.2
2018-Dec-15 22:27S 41°03' E 173°35'5 5.2
2018-Dec-15 21:27S 41°04' E 173°42'0 0.1
2018-Dec-15 21:00S 41°04' E 173°42'0 0.0
2018-Dec-15 20:30S 41°04' E 173°42'0 0.0
2018-Dec-15 19:57S 41°04' E 173°42'0 0.0
2018-Dec-15 19:27S 41°04' E 173°42'0 0.0
2018-Dec-15 18:48S 41°04' E 173°42'0 0.0
2018-Dec-15 18:30S 41°04' E 173°42'0 0.0
2018-Dec-15 17:45S 41°04' E 173°42'0 0.0
2018-Dec-15 17:30S 41°04' E 173°42'0 0.0
2018-Dec-15 17:00S 41°04' E 173°42'0 0.0
2018-Dec-15 16:30S 41°04' E 173°42'0 0.0
2018-Dec-15 15:57S 41°04' E 173°42'0 0.0
2018-Dec-15 15:24S 41°04' E 173°42'0 0.1
2018-Dec-15 14:51S 41°04' E 173°42'0 0.1
2018-Dec-15 14:09S 41°04' E 173°42'0 0.0
2018-Dec-15 14:00S 41°04' E 173°42'0 0.1
2018-Dec-15 13:30S 41°04' E 173°42'0 0.0
2018-Dec-15 11:00S 41°04' E 173°42'0 0.0
2018-Dec-15 09:09S 41°04' E 173°42'0 0.0
2018-Dec-15 09:00S 41°04' E 173°42'0 0.0
2018-Dec-15 08:24S 41°04' E 173°42'0 0.0
2018-Dec-15 07:51S 41°04' E 173°42'0 0.1
2018-Dec-15 07:12S 41°04' E 173°42'0 0.0
2018-Dec-15 06:57S 41°04' E 173°42'0 0.0
2018-Dec-15 05:57S 41°04' E 173°42'0 0.0
2018-Dec-15 05:18S 41°04' E 173°42'0 0.0
2018-Dec-15 04:36S 41°04' E 173°42'0 0.2
2018-Dec-15 04:23S 41°04' E 173°42'1 1.9
2018-Dec-15 04:00S 41°04' E 173°41'5 9.4
2018-Dec-15 03:30S 41°02' E 173°35'3 5.8
2018-Dec-15 03:00S 41°01' E 173°32'1 1.8
2018-Dec-15 02:30S 41°01' E 173°31'1 2.3
2018-Dec-15 02:00S 41°00' E 173°29'5 6.2
2018-Dec-15 01:11S 41°04' E 173°26'2 9.2
2018-Dec-15 01:00S 41°06' E 173°24'9 0.4
2018-Dec-14 02:52S 41°12' E 173°15'18 5.2
2018-Dec-13 23:25S 41°01' E 173°33'3 0.2
2018-Dec-13 03:35S 41°00' E 173°38'1 9.6
2018-Dec-13 03:30S 40°60' E 173°38'4 8.5
2018-Dec-13 03:00S 40°56' E 173°40'1 1.8
2018-Dec-13 02:30S 40°56' E 173°41'1 2.0
2018-Dec-13 02:00S 40°57' E 173°40'6 2.6
2018-Dec-12 23:42S 40°57' E 173°48'3 8.2
2018-Dec-12 23:21S 40°55' E 173°51'1 3.6
2018-Dec-12 22:59S 40°55' E 173°52'1 1.4
2018-Dec-12 22:28S 40°55' E 173°52'1 2.0
2018-Dec-12 21:59S 40°55' E 173°52'4 8.7
2018-Dec-12 21:30S 40°53' E 173°56'5 9.3
2018-Dec-12 21:00S 40°54' E 174°02'3 6.8
2018-Dec-12 20:30S 40°57' E 173°59'1 1.7
2018-Dec-12 19:58S 40°56' E 173°59'0 0.0
2018-Dec-12 19:28S 40°56' E 173°59'0 0.0
2018-Dec-12 18:58S 40°56' E 173°59'0 0.0
2018-Dec-12 18:28S 40°56' E 173°59'0 0.1
2018-Dec-12 17:55S 40°56' E 173°59'0 0.0
2018-Dec-12 17:28S 40°56' E 173°59'0 0.0
2018-Dec-12 16:58S 40°56' E 173°59'0 0.0
2018-Dec-12 16:28S 40°56' E 173°59'0 0.0
2018-Dec-12 15:58S 40°56' E 173°59'0 0.0
2018-Dec-12 15:28S 40°56' E 173°59'0 0.0
2018-Dec-12 14:58S 40°56' E 173°59'0 0.0
2018-Dec-12 14:28S 40°56' E 173°59'0 0.0
2018-Dec-12 13:58S 40°56' E 173°59'0 0.0
2018-Dec-12 13:28S 40°56' E 173°59'0 0.0
2018-Dec-12 12:55S 40°56' E 173°59'0 0.0
2018-Dec-12 12:28S 40°56' E 173°59'0 0.1
2018-Dec-12 11:58S 40°56' E 173°59'0 0.1
2018-Dec-12 11:28S 40°56' E 173°59'0 0.1
2018-Dec-12 10:58S 40°56' E 173°59'0 0.0
2018-Dec-12 10:28S 40°56' E 173°59'0 0.0
2018-Dec-12 09:58S 40°56' E 173°59'0 0.0
2018-Dec-12 09:28S 40°56' E 173°59'0 0.1
2018-Dec-12 08:58S 40°56' E 173°59'0 0.2
2018-Dec-12 08:28S 40°56' E 173°59'0 0.1
2018-Dec-12 07:58S 40°56' E 173°59'0 0.0
2018-Dec-12 07:25S 40°56' E 173°59'0 0.0
2018-Dec-12 06:58S 40°56' E 173°59'0 0.0
2018-Dec-12 06:28S 40°56' E 173°59'0 0.1
2018-Dec-12 05:58S 40°56' E 173°59'0 0.1
2018-Dec-12 05:28S 40°56' E 173°59'0 0.1
2018-Dec-12 04:58S 40°56' E 173°59'0 0.8
2018-Dec-12 04:30S 40°56' E 173°59'3 6.4
2018-Dec-12 04:00S 40°56' E 174°03'3 6.9
2018-Dec-12 03:30S 40°55' E 174°08'1 1.7
2018-Dec-12 02:59S 40°55' E 174°09'2 3.7
2018-Dec-12 02:30S 40°55' E 174°11'1 2.2
2018-Dec-12 02:00S 40°54' E 174°12'2 3.5
2018-Dec-12 01:30S 40°54' E 174°10'1 2.7
2018-Dec-12 01:00S 40°54' E 174°08'1 1.9
2018-Dec-12 00:20S 40°54' E 174°07'0 0.1
2018-Dec-11 23:59S 40°54' E 174°07'0 0.0
2018-Dec-11 23:29S 40°54' E 174°07'0 0.0
2018-Dec-11 22:59S 40°54' E 174°07'0 0.0
2018-Dec-11 22:29S 40°54' E 174°07'1 2.6
2018-Dec-11 22:00S 40°55' E 174°05'5 9.2
2018-Dec-11 21:30S 40°57' E 174°00'5 9.3
2018-Dec-11 21:00S 41°01' E 173°56'3 6.3
2018-Dec-11 20:30S 41°03' E 173°57'4 7.4
2018-Dec-11 20:00S 41°06' E 173°54'4 8.0
2018-Dec-11 19:30S 41°10' E 173°52'3 5.9
2018-Dec-11 19:01S 41°13' E 173°53'4 7.6
2018-Dec-11 18:30S 41°12' E 173°58'1 2.0
2018-Dec-11 18:00S 41°12' E 173°59'0 0.0
2018-Dec-11 17:30S 41°12' E 173°59'0 0.0
2018-Dec-11 17:00S 41°12' E 173°59'0 0.0
2018-Dec-11 16:30S 41°12' E 173°59'0 0.0
2018-Dec-11 16:00S 41°12' E 173°59'0 0.0
2018-Dec-11 15:30S 41°12' E 173°59'0 0.0
2018-Dec-11 15:00S 41°12' E 173°59'0 0.0
2018-Dec-11 14:30S 41°12' E 173°59'0 0.0
2018-Dec-11 14:00S 41°12' E 173°59'0 0.0
2018-Dec-11 13:30S 41°12' E 173°59'0 0.0
2018-Dec-11 13:00S 41°12' E 173°59'0 0.0
2018-Dec-11 12:30S 41°12' E 173°59'0 0.0
2018-Dec-11 12:00S 41°12' E 173°59'0 0.0
2018-Dec-11 11:30S 41°12' E 173°59'0 0.1
2018-Dec-11 11:00S 41°12' E 173°59'0 0.0
2018-Dec-11 10:30S 41°12' E 173°59'0 0.0
2018-Dec-11 10:00S 41°12' E 173°59'0 0.0
2018-Dec-11 09:30S 41°12' E 173°59'0 0.0
2018-Dec-11 09:00S 41°12' E 173°59'0 0.1
2018-Dec-11 08:30S 41°12' E 173°59'1 2.8
2018-Dec-11 07:58S 41°11' E 173°57'0 0.0
2018-Dec-11 07:28S 41°11' E 173°57'0 0.0
2018-Dec-11 06:58S 41°11' E 173°57'0 0.0
2018-Dec-11 06:25S 41°11' E 173°57'0 0.0
2018-Dec-11 05:55S 41°11' E 173°57'0 0.0
2018-Dec-11 05:28S 41°11' E 173°57'0 0.0
2018-Dec-11 04:58S 41°11' E 173°57'0 0.0
2018-Dec-11 04:28S 41°11' E 173°57'0 0.0
2018-Dec-11 03:58S 41°11' E 173°57'0 0.0
2018-Dec-11 03:28S 41°11' E 173°57'0 0.0
2018-Dec-11 02:58S 41°11' E 173°57'0 0.0
2018-Dec-11 02:28S 41°11' E 173°57'0 0.0
2018-Dec-11 01:58S 41°11' E 173°57'0 0.0
2018-Dec-11 01:28S 41°11' E 173°57'0 0.0
2018-Dec-11 00:58S 41°11' E 173°57'0 0.1
2018-Dec-11 00:28S 41°11' E 173°57'0 0.0
2018-Dec-10 23:58S 41°11' E 173°57'0 0.0
2018-Dec-10 23:28S 41°11' E 173°57'0 0.0
2018-Dec-10 22:58S 41°11' E 173°57'0 0.0
2018-Dec-10 22:25S 41°11' E 173°57'0 0.0
2018-Dec-10 21:58S 41°11' E 173°57'0 0.0
2018-Dec-10 21:28S 41°11' E 173°57'0 0.0
2018-Dec-10 20:58S 41°11' E 173°57'0 0.1
2018-Dec-10 20:30S 41°11' E 173°57'3 6.6
2018-Dec-10 19:59S 41°13' E 173°53'0 0.1
2018-Dec-10 19:29S 41°13' E 173°53'0 0.0
2018-Dec-10 18:59S 41°13' E 173°53'0 0.1
2018-Dec-10 18:29S 41°13' E 173°53'0 0.0
2018-Dec-10 17:59S 41°13' E 173°53'0 0.0
2018-Dec-10 17:29S 41°13' E 173°53'0 0.0
2018-Dec-10 16:59S 41°13' E 173°53'0 0.0
2018-Dec-10 16:29S 41°13' E 173°53'0 0.0
2018-Dec-10 15:59S 41°13' E 173°53'0 0.0
2018-Dec-10 15:20S 41°13' E 173°53'0 0.0
2018-Dec-10 14:59S 41°13' E 173°53'0 0.0
2018-Dec-10 14:29S 41°13' E 173°53'0 0.0
2018-Dec-10 13:59S 41°13' E 173°53'0 0.0
2018-Dec-10 13:29S 41°13' E 173°53'0 0.0
2018-Dec-10 12:59S 41°13' E 173°53'0 0.0
2018-Dec-10 12:29S 41°13' E 173°53'0 0.0
2018-Dec-10 11:59S 41°13' E 173°53'0 0.1
2018-Dec-10 11:29S 41°13' E 173°53'0 0.0
2018-Dec-10 10:59S 41°13' E 173°53'0 0.1
2018-Dec-10 10:29S 41°13' E 173°53'0 0.0
2018-Dec-10 09:59S 41°13' E 173°53'0 0.1
2018-Dec-10 09:29S 41°13' E 173°53'0 0.0
2018-Dec-10 08:59S 41°13' E 173°53'0 0.0
2018-Dec-10 08:29S 41°13' E 173°53'0 0.0
2018-Dec-10 07:59S 41°13' E 173°53'0 0.0
2018-Dec-10 07:29S 41°13' E 173°53'0 0.0
2018-Dec-10 06:59S 41°13' E 173°53'0 0.1
2018-Dec-10 06:29S 41°13' E 173°53'2 3.5
2018-Dec-10 06:01S 41°11' E 173°52'4 8.3
2018-Dec-10 05:30S 41°07' E 173°54'4 9.0
2018-Dec-10 05:01S 41°04' E 173°58'4 8.5
2018-Dec-10 04:30S 41°03' E 173°52'3 6.8
2018-Dec-10 04:01S 41°03' E 173°48'1 1.1
2018-Dec-10 03:28S 41°03' E 173°47'0 0.0
2018-Dec-10 02:25S 41°03' E 173°47'0 0.0
2018-Dec-10 01:58S 41°03' E 173°47'0 0.1
2018-Dec-10 01:25S 41°03' E 173°47'0 0.1
2018-Dec-10 00:58S 41°03' E 173°47'2 3.8
2018-Dec-10 00:30S 41°05' E 173°47'1 1.5
2018-Dec-09 23:59S 41°05' E 173°46'0 0.0
2018-Dec-09 23:26S 41°05' E 173°46'0 0.0
2018-Dec-09 22:59S 41°05' E 173°46'0 0.0
2018-Dec-09 22:29S 41°05' E 173°46'0 0.0
2018-Dec-09 21:56S 41°05' E 173°46'0 0.1
2018-Dec-09 21:26S 41°05' E 173°46'0 0.1
2018-Dec-09 20:49S 41°05' E 173°46'1 2.6
2018-Dec-09 20:29S 41°06' E 173°47'0 0.0
2018-Dec-09 19:59S 41°06' E 173°47'0 0.1
2018-Dec-09 19:29S 41°06' E 173°47'0 0.2
2018-Dec-09 18:59S 41°06' E 173°47'0 0.0
2018-Dec-09 18:26S 41°06' E 173°47'0 0.0
2018-Dec-09 17:56S 41°06' E 173°47'0 0.0
2018-Dec-09 17:26S 41°06' E 173°47'0 0.0
2018-Dec-09 16:59S 41°06' E 173°47'0 0.1
2018-Dec-09 16:26S 41°06' E 173°47'0 0.0
2018-Dec-09 15:56S 41°06' E 173°47'0 0.1
2018-Dec-09 15:26S 41°06' E 173°47'0 0.1
2018-Dec-09 14:56S 41°06' E 173°47'0 0.1
2018-Dec-09 14:26S 41°06' E 173°47'0 0.1
2018-Dec-09 13:50S 41°06' E 173°47'0 0.0
2018-Dec-09 13:29S 41°06' E 173°47'0 0.0
2018-Dec-09 12:59S 41°06' E 173°47'0 0.0
2018-Dec-09 12:26S 41°06' E 173°47'0 0.0
2018-Dec-09 11:59S 41°06' E 173°47'0 0.0
2018-Dec-09 11:20S 41°06' E 173°47'0 0.0
2018-Dec-09 10:53S 41°06' E 173°47'0 0.0
2018-Dec-09 10:23S 41°06' E 173°47'0 0.0
2018-Dec-09 09:50S 41°06' E 173°47'0 0.0
2018-Dec-09 09:29S 41°06' E 173°47'0 0.0
2018-Dec-09 08:56S 41°06' E 173°47'0 0.0
2018-Dec-09 08:29S 41°06' E 173°47'0 0.0
2018-Dec-09 07:59S 41°06' E 173°47'0 0.1
2018-Dec-09 07:20S 41°06' E 173°47'0 0.1
2018-Dec-09 06:56S 41°06' E 173°47'0 0.1
2018-Dec-09 06:17S 41°06' E 173°47'0 0.1
2018-Dec-09 05:50S 41°06' E 173°47'0 0.0
2018-Dec-09 05:17S 41°06' E 173°47'0 0.5
2018-Dec-09 05:00S 41°06' E 173°47'4 8.4
2018-Dec-09 04:30S 41°03' E 173°50'4 8.3
2018-Dec-09 04:00S 41°00' E 173°55'4 7.9
2018-Dec-09 03:30S 40°58' E 173°58'2 3.4
2018-Dec-09 03:00S 40°56' E 173°59'0 0.0
2018-Dec-09 02:30S 40°56' E 173°59'0 0.0
2018-Dec-09 02:00S 40°56' E 173°59'0 0.0
2018-Dec-09 01:30S 40°56' E 173°59'0 0.1
2018-Dec-09 01:00S 40°56' E 173°59'1 2.7
2018-Dec-09 00:31S 40°57' E 174°01'4 7.1
2018-Dec-08 23:59S 40°56' E 174°05'3 6.6
2018-Dec-08 23:30S 40°56' E 174°09'1 1.5
2018-Dec-08 23:00S 40°56' E 174°10'1 2.7
2018-Dec-08 22:30S 40°56' E 174°12'4 8.0
2018-Dec-08 22:00S 40°57' E 174°17'4 8.3
2018-Dec-08 21:30S 40°59' E 174°21'4 7.8
2018-Dec-08 21:00S 41°03' E 174°19'4 7.7
2018-Dec-08 20:30S 41°05' E 174°15'0 0.9
2018-Dec-08 20:00S 41°06' E 174°15'0 0.0
2018-Dec-08 19:30S 41°06' E 174°15'0 0.0
2018-Dec-08 19:00S 41°06' E 174°15'0 0.0
2018-Dec-08 18:30S 41°06' E 174°15'0 0.0
2018-Dec-08 18:00S 41°06' E 174°15'0 0.0
2018-Dec-08 17:30S 41°06' E 174°15'0 0.0
2018-Dec-08 17:00S 41°06' E 174°15'0 0.0
2018-Dec-08 16:30S 41°06' E 174°15'0 0.0
2018-Dec-08 16:00S 41°06' E 174°15'0 0.1
2018-Dec-08 15:30S 41°06' E 174°15'0 0.0
2018-Dec-08 15:00S 41°06' E 174°15'0 0.0
2018-Dec-08 14:30S 41°06' E 174°15'0 0.0
2018-Dec-08 14:00S 41°06' E 174°15'0 0.0
2018-Dec-08 13:30S 41°06' E 174°15'0 0.0
2018-Dec-08 13:00S 41°06' E 174°15'0 0.1
2018-Dec-08 12:30S 41°06' E 174°15'0 0.0
2018-Dec-08 12:00S 41°06' E 174°15'0 0.0
2018-Dec-08 11:30S 41°06' E 174°15'0 0.1
2018-Dec-08 11:00S 41°06' E 174°15'0 0.1
2018-Dec-08 10:30S 41°06' E 174°15'0 0.0
2018-Dec-08 10:00S 41°06' E 174°15'0 0.0
2018-Dec-08 09:30S 41°06' E 174°15'0 0.0
2018-Dec-08 09:00S 41°06' E 174°15'  
Track history (hours):
 
Tides and Currents Weather Stations Pressure Air Temp Water Temp Dewpoint Dewpoint Depression Visibility Wind Speed Wind Dir Waves Ship Positions

Spirit of New Zealand

Last reported at 2018-Dec-18 08:58 UTC. Time now 2018-Dec-18 11:30 UTC.
Position S 40°53' E 173°03'.

Length 37 m; draft 4.1 m.

Type: Passenger vessel. MMSI: 512201000.

Date/timePositionNaut miles runAvg speedWind from/ knotsBaromVisibWave heightAir tempDewpointWater temp
2018-Dec-18 08:58S 40°53' E 173°03'3 4.7
2018-Dec-18 08:24S 40°56' E 173°05'7 1.0
2018-Dec-18 01:18S 40°52' E 173°13'2 7.8
2018-Dec-18 01:00S 40°53' E 173°10'4 7.2
2018-Dec-18 00:30S 40°54' E 173°06'8 0.4
2018-Dec-17 05:19S 40°54' E 173°17'5 8.0
2018-Dec-17 04:42S 40°51' E 173°22'2 7.8
2018-Dec-17 04:29S 40°51' E 173°24'4 7.6
2018-Dec-17 03:59S 40°49' E 173°29'3 7.1
2018-Dec-17 03:30S 40°47' E 173°33'4 7.8
2018-Dec-17 03:00S 40°46' E 173°38'12 7.8
2018-Dec-17 01:32S 40°43' E 173°52'1 7.5
2018-Dec-17 01:24S 40°42' E 173°53'2 4.3
2018-Dec-17 00:58S 40°44' E 173°54'2 4.3
2018-Dec-17 00:28S 40°46' E 173°52'0 0.0
2018-Dec-16 20:06S 40°46' E 173°53'0 0.6
2018-Dec-16 20:00S 40°46' E 173°52'1 2.4
2018-Dec-16 19:30S 40°47' E 173°53'0 0.0
2018-Dec-16 15:08S 40°47' E 173°53'0 0.0
2018-Dec-16 14:05S 40°47' E 173°53'0 0.0
2018-Dec-16 11:14S 40°47' E 173°53'0 0.0
2018-Dec-16 10:08S 40°47' E 173°53'0 0.0
2018-Dec-16 09:47S 40°47' E 173°53'0 0.0
2018-Dec-16 08:59S 40°47' E 173°53'0 0.0
2018-Dec-16 07:14S 40°47' E 173°53'0 0.0
2018-Dec-16 06:38S 40°47' E 173°53'0 0.0
2018-Dec-16 05:29S 40°47' E 173°53'1 1.0
2018-Dec-16 04:58S 40°47' E 173°53'4 8.2
2018-Dec-16 04:27S 40°43' E 173°55'4 8.5
2018-Dec-16 04:01S 40°40' E 173°58'4 7.5
2018-Dec-16 03:30S 40°41' E 174°03'4 8.8
2018-Dec-16 03:01S 40°46' E 174°01'5 9.5
2018-Dec-16 02:30S 40°50' E 173°58'5 9.3
2018-Dec-16 02:01S 40°54' E 173°54'5 7.8
2018-Dec-16 01:26S 40°56' E 173°49'3 5.2
2018-Dec-16 00:49S 40°58' E 173°46'3 8.0
2018-Dec-16 00:27S 40°59' E 173°42'3 3.7
2018-Dec-15 23:46S 40°60' E 173°39'1 2.0
2018-Dec-15 23:31S 40°60' E 173°38'1 2.7
2018-Dec-15 23:00S 41°01' E 173°37'2 4.2
2018-Dec-15 22:27S 41°03' E 173°35'5 5.2
2018-Dec-15 21:27S 41°04' E 173°42'0 0.1
2018-Dec-15 21:00S 41°04' E 173°42'0 0.0
2018-Dec-15 20:30S 41°04' E 173°42'0 0.0
2018-Dec-15 19:57S 41°04' E 173°42'0 0.0
2018-Dec-15 19:27S 41°04' E 173°42'0 0.0
2018-Dec-15 18:48S 41°04' E 173°42'0 0.0
2018-Dec-15 18:30S 41°04' E 173°42'0 0.0
2018-Dec-15 17:45S 41°04' E 173°42'0 0.0
2018-Dec-15 17:30S 41°04' E 173°42'0 0.0
2018-Dec-15 17:00S 41°04' E 173°42'0 0.0
2018-Dec-15 16:30S 41°04' E 173°42'0 0.0
2018-Dec-15 15:57S 41°04' E 173°42'0 0.0
2018-Dec-15 15:24S 41°04' E 173°42'0 0.1
2018-Dec-15 14:51S 41°04' E 173°42'0 0.1
2018-Dec-15 14:09S 41°04' E 173°42'0 0.0
2018-Dec-15 14:00S 41°04' E 173°42'0 0.1
2018-Dec-15 13:30S 41°04' E 173°42'0 0.0
2018-Dec-15 11:00S 41°04' E 173°42'0 0.0
2018-Dec-15 09:09S 41°04' E 173°42'0 0.0
2018-Dec-15 09:00S 41°04' E 173°42'0 0.0
2018-Dec-15 08:24S 41°04' E 173°42'0 0.0
2018-Dec-15 07:51S 41°04' E 173°42'0 0.1
2018-Dec-15 07:12S 41°04' E 173°42'0 0.0
2018-Dec-15 06:57S 41°04' E 173°42'0 0.0
2018-Dec-15 05:57S 41°04' E 173°42'0 0.0
2018-Dec-15 05:18S 41°04' E 173°42'0 0.0
2018-Dec-15 04:36S 41°04' E 173°42'0 0.2
2018-Dec-15 04:23S 41°04' E 173°42'1 1.9
2018-Dec-15 04:00S 41°04' E 173°41'5 9.4
2018-Dec-15 03:30S 41°02' E 173°35'3 5.8
2018-Dec-15 03:00S 41°01' E 173°32'1 1.8
2018-Dec-15 02:30S 41°01' E 173°31'1 2.3
2018-Dec-15 02:00S 41°00' E 173°29'5 6.2
2018-Dec-15 01:11S 41°04' E 173°26'2 9.2
2018-Dec-15 01:00S 41°06' E 173°24'9 0.4
2018-Dec-14 02:52S 41°12' E 173°15'18 5.2
2018-Dec-13 23:25S 41°01' E 173°33'3 0.2
2018-Dec-13 03:35S 41°00' E 173°38'1 9.6
2018-Dec-13 03:30S 40°60' E 173°38'4 8.5
2018-Dec-13 03:00S 40°56' E 173°40'1 1.8
2018-Dec-13 02:30S 40°56' E 173°41'1 2.0
2018-Dec-13 02:00S 40°57' E 173°40'6 2.6
2018-Dec-12 23:42S 40°57' E 173°48'3 8.2
2018-Dec-12 23:21S 40°55' E 173°51'1 3.6
2018-Dec-12 22:59S 40°55' E 173°52'1 1.4
2018-Dec-12 22:28S 40°55' E 173°52'1 2.0
2018-Dec-12 21:59S 40°55' E 173°52'4 8.7
2018-Dec-12 21:30S 40°53' E 173°56'5 9.3
2018-Dec-12 21:00S 40°54' E 174°02'3 6.8
2018-Dec-12 20:30S 40°57' E 173°59'1 1.7
2018-Dec-12 19:58S 40°56' E 173°59'0 0.0
2018-Dec-12 19:28S 40°56' E 173°59'0 0.0
2018-Dec-12 18:58S 40°56' E 173°59'0 0.0
2018-Dec-12 18:28S 40°56' E 173°59'0 0.1
2018-Dec-12 17:55S 40°56' E 173°59'0 0.0
2018-Dec-12 17:28S 40°56' E 173°59'0 0.0
2018-Dec-12 16:58S 40°56' E 173°59'0 0.0
2018-Dec-12 16:28S 40°56' E 173°59'0 0.0
2018-Dec-12 15:58S 40°56' E 173°59'0 0.0
2018-Dec-12 15:28S 40°56' E 173°59'0 0.0
2018-Dec-12 14:58S 40°56' E 173°59'0 0.0
2018-Dec-12 14:28S 40°56' E 173°59'0 0.0
2018-Dec-12 13:58S 40°56' E 173°59'0 0.0
2018-Dec-12 13:28S 40°56' E 173°59'0 0.0
2018-Dec-12 12:55S 40°56' E 173°59'0 0.0
2018-Dec-12 12:28S 40°56' E 173°59'0 0.1
2018-Dec-12 11:58S 40°56' E 173°59'0 0.1
2018-Dec-12 11:28S 40°56' E 173°59'0 0.1
2018-Dec-12 10:58S 40°56' E 173°59'0 0.0
2018-Dec-12 10:28S 40°56' E 173°59'0 0.0
2018-Dec-12 09:58S 40°56' E 173°59'0 0.0
2018-Dec-12 09:28S 40°56' E 173°59'0 0.1
2018-Dec-12 08:58S 40°56' E 173°59'0 0.2
2018-Dec-12 08:28S 40°56' E 173°59'0 0.1
2018-Dec-12 07:58S 40°56' E 173°59'0 0.0
2018-Dec-12 07:25S 40°56' E 173°59'0 0.0
2018-Dec-12 06:58S 40°56' E 173°59'0 0.0
2018-Dec-12 06:28S 40°56' E 173°59'0 0.1
2018-Dec-12 05:58S 40°56' E 173°59'0 0.1
2018-Dec-12 05:28S 40°56' E 173°59'0 0.1
2018-Dec-12 04:58S 40°56' E 173°59'0 0.8
2018-Dec-12 04:30S 40°56' E 173°59'3 6.4
2018-Dec-12 04:00S 40°56' E 174°03'3 6.9
2018-Dec-12 03:30S 40°55' E 174°08'1 1.7
2018-Dec-12 02:59S 40°55' E 174°09'2 3.7
2018-Dec-12 02:30S 40°55' E 174°11'1 2.2
2018-Dec-12 02:00S 40°54' E 174°12'2 3.5
2018-Dec-12 01:30S 40°54' E 174°10'1 2.7
2018-Dec-12 01:00S 40°54' E 174°08'1 1.9
2018-Dec-12 00:20S 40°54' E 174°07'0 0.1
2018-Dec-11 23:59S 40°54' E 174°07'0 0.0
2018-Dec-11 23:29S 40°54' E 174°07'0 0.0
2018-Dec-11 22:59S 40°54' E 174°07'0 0.0
2018-Dec-11 22:29S 40°54' E 174°07'1 2.6
2018-Dec-11 22:00S 40°55' E 174°05'5 9.2
2018-Dec-11 21:30S 40°57' E 174°00'5 9.3
2018-Dec-11 21:00S 41°01' E 173°56'3 6.3
2018-Dec-11 20:30S 41°03' E 173°57'4 7.4
2018-Dec-11 20:00S 41°06' E 173°54'4 8.0
2018-Dec-11 19:30S 41°10' E 173°52'3 5.9
2018-Dec-11 19:01S 41°13' E 173°53'4 7.6
2018-Dec-11 18:30S 41°12' E 173°58'1 2.0
2018-Dec-11 18:00S 41°12' E 173°59'0 0.0
2018-Dec-11 17:30S 41°12' E 173°59'0 0.0
2018-Dec-11 17:00S 41°12' E 173°59'0 0.0
2018-Dec-11 16:30S 41°12' E 173°59'0 0.0
2018-Dec-11 16:00S 41°12' E 173°59'0 0.0
2018-Dec-11 15:30S 41°12' E 173°59'0 0.0
2018-Dec-11 15:00S 41°12' E 173°59'0 0.0
2018-Dec-11 14:30S 41°12' E 173°59'0 0.0
2018-Dec-11 14:00S 41°12' E 173°59'0 0.0
2018-Dec-11 13:30S 41°12' E 173°59'0 0.0
2018-Dec-11 13:00S 41°12' E 173°59'0 0.0
2018-Dec-11 12:30S 41°12' E 173°59'0 0.0
2018-Dec-11 12:00S 41°12' E 173°59'0 0.0
2018-Dec-11 11:30S 41°12' E 173°59'0 0.1
2018-Dec-11 11:00S 41°12' E 173°59'0 0.0
2018-Dec-11 10:30S 41°12' E 173°59'0 0.0
2018-Dec-11 10:00S 41°12' E 173°59'0 0.0
2018-Dec-11 09:30S 41°12' E 173°59'0 0.0
2018-Dec-11 09:00S 41°12' E 173°59'0 0.1
2018-Dec-11 08:30S 41°12' E 173°59'1 2.8
2018-Dec-11 07:58S 41°11' E 173°57'0 0.0
2018-Dec-11 07:28S 41°11' E 173°57'0 0.0
2018-Dec-11 06:58S 41°11' E 173°57'0 0.0
2018-Dec-11 06:25S 41°11' E 173°57'0 0.0
2018-Dec-11 05:55S 41°11' E 173°57'0 0.0
2018-Dec-11 05:28S 41°11' E 173°57'0 0.0
2018-Dec-11 04:58S 41°11' E 173°57'0 0.0
2018-Dec-11 04:28S 41°11' E 173°57'0 0.0
2018-Dec-11 03:58S 41°11' E 173°57'0 0.0
2018-Dec-11 03:28S 41°11' E 173°57'0 0.0
2018-Dec-11 02:58S 41°11' E 173°57'0 0.0
2018-Dec-11 02:28S 41°11' E 173°57'0 0.0
2018-Dec-11 01:58S 41°11' E 173°57'0 0.0
2018-Dec-11 01:28S 41°11' E 173°57'0 0.0
2018-Dec-11 00:58S 41°11' E 173°57'0 0.1
2018-Dec-11 00:28S 41°11' E 173°57'0 0.0
2018-Dec-10 23:58S 41°11' E 173°57'0 0.0
2018-Dec-10 23:28S 41°11' E 173°57'0 0.0
2018-Dec-10 22:58S 41°11' E 173°57'0 0.0
2018-Dec-10 22:25S 41°11' E 173°57'0 0.0
2018-Dec-10 21:58S 41°11' E 173°57'0 0.0
2018-Dec-10 21:28S 41°11' E 173°57'0 0.0
2018-Dec-10 20:58S 41°11' E 173°57'0 0.1
2018-Dec-10 20:30S 41°11' E 173°57'3 6.6
2018-Dec-10 19:59S 41°13' E 173°53'0 0.1
2018-Dec-10 19:29S 41°13' E 173°53'0 0.0
2018-Dec-10 18:59S 41°13' E 173°53'0 0.1
2018-Dec-10 18:29S 41°13' E 173°53'0 0.0
2018-Dec-10 17:59S 41°13' E 173°53'0 0.0
2018-Dec-10 17:29S 41°13' E 173°53'0 0.0
2018-Dec-10 16:59S 41°13' E 173°53'0 0.0
2018-Dec-10 16:29S 41°13' E 173°53'0 0.0
2018-Dec-10 15:59S 41°13' E 173°53'0 0.0
2018-Dec-10 15:20S 41°13' E 173°53'0 0.0
2018-Dec-10 14:59S 41°13' E 173°53'0 0.0
2018-Dec-10 14:29S 41°13' E 173°53'0 0.0
2018-Dec-10 13:59S 41°13' E 173°53'0 0.0
2018-Dec-10 13:29S 41°13' E 173°53'0 0.0
2018-Dec-10 12:59S 41°13' E 173°53'0 0.0
2018-Dec-10 12:29S 41°13' E 173°53'0 0.0
2018-Dec-10 11:59S 41°13' E 173°53'0 0.1
2018-Dec-10 11:29S 41°13' E 173°53'0 0.0
2018-Dec-10 10:59S 41°13' E 173°53'0 0.1
2018-Dec-10 10:29S 41°13' E 173°53'0 0.0
2018-Dec-10 09:59S 41°13' E 173°53'0 0.1
2018-Dec-10 09:29S 41°13' E 173°53'0 0.0
2018-Dec-10 08:59S 41°13' E 173°53'0 0.0
2018-Dec-10 08:29S 41°13' E 173°53'0 0.0
2018-Dec-10 07:59S 41°13' E 173°53'0 0.0
2018-Dec-10 07:29S 41°13' E 173°53'0 0.0
2018-Dec-10 06:59S 41°13' E 173°53'0 0.1
2018-Dec-10 06:29S 41°13' E 173°53'2 3.5
2018-Dec-10 06:01S 41°11' E 173°52'4 8.3
2018-Dec-10 05:30S 41°07' E 173°54'4 9.0
2018-Dec-10 05:01S 41°04' E 173°58'4 8.5
2018-Dec-10 04:30S 41°03' E 173°52'3 6.8
2018-Dec-10 04:01S 41°03' E 173°48'1 1.1
2018-Dec-10 03:28S 41°03' E 173°47'0 0.0
2018-Dec-10 02:25S 41°03' E 173°47'0 0.0
2018-Dec-10 01:58S 41°03' E 173°47'0 0.1
2018-Dec-10 01:25S 41°03' E 173°47'0 0.1
2018-Dec-10 00:58S 41°03' E 173°47'2 3.8
2018-Dec-10 00:30S 41°05' E 173°47'1 1.5
2018-Dec-09 23:59S 41°05' E 173°46'0 0.0
2018-Dec-09 23:26S 41°05' E 173°46'0 0.0
2018-Dec-09 22:59S 41°05' E 173°46'0 0.0
2018-Dec-09 22:29S 41°05' E 173°46'0 0.0
2018-Dec-09 21:56S 41°05' E 173°46'0 0.1
2018-Dec-09 21:26S 41°05' E 173°46'0 0.1
2018-Dec-09 20:49S 41°05' E 173°46'1 2.6
2018-Dec-09 20:29S 41°06' E 173°47'0 0.0
2018-Dec-09 19:59S 41°06' E 173°47'0 0.1
2018-Dec-09 19:29S 41°06' E 173°47'0 0.2
2018-Dec-09 18:59S 41°06' E 173°47'0 0.0
2018-Dec-09 18:26S 41°06' E 173°47'0 0.0
2018-Dec-09 17:56S 41°06' E 173°47'0 0.0
2018-Dec-09 17:26S 41°06' E 173°47'0 0.0
2018-Dec-09 16:59S 41°06' E 173°47'0 0.1
2018-Dec-09 16:26S 41°06' E 173°47'0 0.0
2018-Dec-09 15:56S 41°06' E 173°47'0 0.1
2018-Dec-09 15:26S 41°06' E 173°47'0 0.1
2018-Dec-09 14:56S 41°06' E 173°47'0 0.1
2018-Dec-09 14:26S 41°06' E 173°47'0 0.1
2018-Dec-09 13:50S 41°06' E 173°47'0 0.0
2018-Dec-09 13:29S 41°06' E 173°47'0 0.0
2018-Dec-09 12:59S 41°06' E 173°47'0 0.0
2018-Dec-09 12:26S 41°06' E 173°47'0 0.0
2018-Dec-09 11:59S 41°06' E 173°47'0 0.0
2018-Dec-09 11:20S 41°06' E 173°47'0 0.0
2018-Dec-09 10:53S 41°06' E 173°47'0 0.0
2018-Dec-09 10:23S 41°06' E 173°47'0 0.0
2018-Dec-09 09:50S 41°06' E 173°47'0 0.0
2018-Dec-09 09:29S 41°06' E 173°47'0 0.0
2018-Dec-09 08:56S 41°06' E 173°47'0 0.0
2018-Dec-09 08:29S 41°06' E 173°47'0 0.0
2018-Dec-09 07:59S 41°06' E 173°47'0 0.1
2018-Dec-09 07:20S 41°06' E 173°47'0 0.1
2018-Dec-09 06:56S 41°06' E 173°47'0 0.1
2018-Dec-09 06:17S 41°06' E 173°47'0 0.1
2018-Dec-09 05:50S 41°06' E 173°47'0 0.0
2018-Dec-09 05:17S 41°06' E 173°47'0 0.5
2018-Dec-09 05:00S 41°06' E 173°47'4 8.4
2018-Dec-09 04:30S 41°03' E 173°50'4 8.3
2018-Dec-09 04:00S 41°00' E 173°55'4 7.9
2018-Dec-09 03:30S 40°58' E 173°58'2 3.4
2018-Dec-09 03:00S 40°56' E 173°59'0 0.0
2018-Dec-09 02:30S 40°56' E 173°59'0 0.0
2018-Dec-09 02:00S 40°56' E 173°59'0 0.0
2018-Dec-09 01:30S 40°56' E 173°59'0 0.1
2018-Dec-09 01:00S 40°56' E 173°59'1 2.7
2018-Dec-09 00:31S 40°57' E 174°01'4 7.1
2018-Dec-08 23:59S 40°56' E 174°05'3 6.6
2018-Dec-08 23:30S 40°56' E 174°09'1 1.5
2018-Dec-08 23:00S 40°56' E 174°10'1 2.7
2018-Dec-08 22:30S 40°56' E 174°12'4 8.0
2018-Dec-08 22:00S 40°57' E 174°17'4 8.3
2018-Dec-08 21:30S 40°59' E 174°21'4 7.8
2018-Dec-08 21:00S 41°03' E 174°19'4 7.7
2018-Dec-08 20:30S 41°05' E 174°15'0 0.9
2018-Dec-08 20:00S 41°06' E 174°15'0 0.0
2018-Dec-08 19:30S 41°06' E 174°15'0 0.0
2018-Dec-08 19:00S 41°06' E 174°15'0 0.0
2018-Dec-08 18:30S 41°06' E 174°15'0 0.0
2018-Dec-08 18:00S 41°06' E 174°15'0 0.0
2018-Dec-08 17:30S 41°06' E 174°15'0 0.0
2018-Dec-08 17:00S 41°06' E 174°15'0 0.0
2018-Dec-08 16:30S 41°06' E 174°15'0 0.0
2018-Dec-08 16:00S 41°06' E 174°15'0 0.1
2018-Dec-08 15:30S 41°06' E 174°15'0 0.0
2018-Dec-08 15:00S 41°06' E 174°15'0 0.0
2018-Dec-08 14:30S 41°06' E 174°15'0 0.0
2018-Dec-08 14:00S 41°06' E 174°15'0 0.0
2018-Dec-08 13:30S 41°06' E 174°15'0 0.0
2018-Dec-08 13:00S 41°06' E 174°15'0 0.1
2018-Dec-08 12:30S 41°06' E 174°15'0 0.0
2018-Dec-08 12:00S 41°06' E 174°15'0 0.0
2018-Dec-08 11:30S 41°06' E 174°15'0 0.1
2018-Dec-08 11:00S 41°06' E 174°15'0 0.1
2018-Dec-08 10:30S 41°06' E 174°15'0 0.0
2018-Dec-08 10:00S 41°06' E 174°15'0 0.0
2018-Dec-08 09:30S 41°06' E 174°15'0 0.0
2018-Dec-08 09:00S 41°06' E 174°15'  

Dump ship's entire track history